LRCL

Cluj-Napoca International Airport

Cluj-Napoca, Romania
TAF LRCL 210800Z 2109/2118 VRB04KT 9999 SCT030 TEMPO 2110/2116 FEW030CB SCT040 PROB30 TEMPO 2111/2116 VRB20KT -TSRA
Issued Valid From Valid To
Jul-21 @ 08:00 UTC
(2 hours ago)
Jul-21 @ 09:00 UTC
(an hour ago)
Jul-21 @ 18:00 UTC
(in 8 hours)
Jul-21 @ 09:00 to Jul-21 @ 18:00
TAF LRCL 210800Z 2109/2118 VRB04KT 9999 SCT030
Wind Visibility Clouds
Variable at 4 knots 10,000+ meters
  • Scattered at 3,000' AGL
Temporary Jul-21 @ 10:00 to Jul-21 @ 16:00
TEMPO 2110/2116 FEW030CB SCT040
Clouds
  • Few at 3,000' AGL
  • Scattered at 4,000' AGL
Temporary  (Probability 30%) Jul-21 @ 11:00 to Jul-21 @ 16:00
PROB30 TEMPO 2111/2116 VRB20KT -TSRA
Wind Conditions
Variable at 20 knots
  • Light Thunderstorm
  • Light Rain
TAF LRCL 210800Z 2109/2118 VRB04KT 9999 SCT030 TEMPO 2110/2116 FEW030CB SCT040 PROB30 TEMPO 2111/2116 VRB20KT -TSRA
Issued Jul-21 @ 08:00 UTC
(2 hours ago)
Valid From Jul-21 @ 09:00 UTC
(an hour ago)
Valid To Jul-21 @ 18:00 UTC
(in 8 hours)
Jul-21 @ 09:00 - Jul-21 @ 18:00
Wind Visibility
Variable at 4 knots 10,000+ meters
Clouds
  • Scattered at 3,000' AGL
Temporary Jul-21 @ 10:00 - Jul-21 @ 16:00
Clouds
  • Few at 3,000' AGL
  • Scattered at 4,000' AGL
Probability 30% Temporary Jul-21 @ 11:00 - Jul-21 @ 16:00
Wind
Variable at 20 knots
Conditions
  • Light Thunderstorm
  • Light Rain